Terminal Aerodrome Forecast
Issued by NWS

Home | Current Version | Previous Version | Graphics & Text | Print | Product List | Glossary On
Versions: 1 2 3 4 5 6 7 8 9 10 11 12 13 14 15 16 17 18 19 20 21 22 23 24
000
FTUS43 KBIS 261009 AAB
TAFJMS
TAF AMD
KJMS 261009Z 2610/2706 01004KT P6SM VCSH SCT005 OVC015
      TEMPO 2610/2614 OVC005
     FM261500 33006KT P6SM VCSH SCT015 OVC020
     FM262000 31006KT P6SM SCT030 BKN045
     FM270000 31005KT P6SM FEW035 SCT050
     FM270500 22004KT P6SM FEW120=

USA.gov is the U.S. government's official web portal to all federal, state and local government web resources and services.